Station: MOOMBA AP

  Atmospheric Gas Attenuation - ITU Rec 676-11   --------------- db/100km ---------------
Date Time Temp RH % AH g/m3 Dew Point Wind Direction Speed kph Gust kph Barometer mB Rainfall Since 9am 24GHz 47GHz 76GHz 122GHz 134GHz 241GHz
25 00:30 25.1 19 4.4 -0.1 17 19 1009.1 0 10.4 17.3 21.1 54.7 41.0 138.3
25 00:20 25.5 19 4.5 0.2 17 20 1009.2 0 10.5 17.3 21.3 55.2 41.8 141.1
25 00:10 25.8 19 4.57 0.5 19 20 1009.3 0 10.7 17.4 21.4 55.6 42.3 142.9
25 00:00 25.9 18 4.36 -0.2 17 20 1009.4 0 10.2 17.1 20.8 53.9 40.2 135.7
24 23:50 26 18 4.38 -0.1 17 20 1009.5 0 10.3 17.1 20.9 54.0 40.4 136.2
24 23:40 26.2 18 4.43 0 19 22 1009.6 0 10.4 17.2 21.0 54.3 40.8 137.6
24 23:30 26.5 18 4.51 0.3 17 22 1009.7 0 10.5 17.2 21.1 54.7 41.4 139.8
24 23:20 26.5 17 4.26 -0.5 17 20 1009.6 0 10.0 16.9 20.4 52.8 39.0 131.4
24 23:10 26.7 17 4.3 -0.3 17 20 1009.7 0 10.1 16.9 20.5 53.0 39.3 132.5
24 23:00 26.9 17 4.35 -0.2 19 22 1009.8 0 10.2 16.9 20.6 53.2 39.7 133.8
24 22:50 27 17 4.38 -0.1 19 22 1009.8 0 10.3 17.0 20.6 53.4 39.9 134.7
24 22:40 27 16 4.12 -0.9 20 22 1009.9 0 9.7 16.7 19.9 51.4 37.5 126.1
24 22:30 26.9 16 4.1 -1 17 22 1009.8 0 9.7 16.7 19.9 51.3 37.3 125.6
24 22:20 27 16 4.12 -0.9 17 19 1009.8 0 9.7 16.7 19.9 51.4 37.5 126.1
24 22:10 27.2 15 3.9 -1.7 17 19 1009.9 0 9.3 16.4 19.2 49.7 35.4 118.6
24 22:00 27.3 15 3.93 -1.6 15 19 1009.9 0 9.3 16.4 19.3 49.8 35.6 119.4
24 21:50 27.7 14 3.75 -2.2 17 20 1009.8 0 8.9 16.1 18.7 48.3 33.8 113.1
24 21:40 28 14 3.81 -2 19 20 1009.7 0 9.1 16.1 18.8 48.5 34.2 114.6
24 21:30 28.2 14 3.85 -1.8 19 24 1009.6 0 9.1 16.1 18.9 48.7 34.5 115.6
24 21:20 28.5 14 3.91 -1.6 19 20 1009.5 0 9.3 16.2 19.0 49.0 34.9 117.1
24 21:10 28.7 13 3.67 -2.4 19 22 1009.4 0 8.8 15.9 18.3 47.1 32.7 109.2
24 21:00 29 13 3.73 -2.2 19 24 1009.4 0 8.9 15.9 18.4 47.4 33.1 110.7
24 20:50 29.3 13 3.8 -1.9 19 22 1009.3 0 9.0 15.9 18.5 47.7 33.6 112.5
24 20:40 29.6 13 3.86 -1.7 19 22 1009.2 0 9.1 15.9 18.6 48.0 34.0 114.0
24 20:30 29.6 13 3.86 -1.7 15 20 1009.2 0 9.1 15.9 18.6 48.0 34.0 114.0
24 20:20 29.8 13 3.9 -1.5 15 19 1009.1 0 9.2 15.9 18.6 48.1 34.3 115.0
24 20:10 30.2 13 3.99 -1.2 17 20 1009 0 9.4 16.0 18.8 48.5 34.9 117.3
24 20:00 30.5 13 4.05 -1 20 28 1008.9 0 9.5 16.0 18.9 48.8 35.3 118.8
24 19:50 30.8 14 4.43 0.2 22 28 1008.8 0 10.3 16.3 19.8 51.4 38.6 130.4
24 19:40 31 14 4.48 0.4 22 28 1008.7 0 10.4 16.4 19.9 51.6 38.9 131.6
24 19:30 31.3 14 4.55 0.6 22 30 1008.5 0 10.5 16.4 20.0 51.9 39.4 133.4
24 19:20 31.5 13 4.27 -0.2 22 30 1008.4 0 9.9 16.0 19.2 49.8 36.8 124.2
24 19:10 31.7 13 4.32 -0.1 17 20 1008.3 0 10.0 16.1 19.3 50.0 37.2 125.5
24 19:00 31.8 13 4.34 0 26 35 1008.2 0 10.0 16.1 19.4 50.1 37.3 126.0
24 18:50 32.1 13 4.41 0.2 26 35 1008.1 0 10.2 16.1 19.5 50.4 37.8 127.7
24 18:40 32.2 12 4.1 -0.8 28 30 1008 0 9.5 15.7 18.6 48.2 35.0 117.9
24 18:30 32.4 13 4.48 0.5 24 33 1007.9 0 10.3 16.1 19.6 50.7 38.3 129.4
24 18:20 32.7 12 4.21 -0.4 20 28 1007.9 0 9.8 15.8 18.8 48.7 35.8 120.6
24 18:10 32.9 11 3.9 -1.4 24 30 1007.8 0 9.1 15.4 18.0 46.4 33.0 110.9
24 18:00 32.9 12 4.25 -0.2 26 35 1007.8 0 9.8 15.8 18.9 48.8 36.0 121.6
24 17:50 33.2 12 4.32 0 22 28 1007.7 0 10.0 15.8 19.0 49.1 36.5 123.3
24 17:40 33.1 11 3.94 -1.3 26 32 1007.7 0 9.2 15.4 18.0 46.5 33.3 111.8
24 17:30 33.4 12 4.36 0.1 24 32 1007.7 0 10.0 15.8 19.0 49.3 36.8 124.3
24 17:20 33.8 11 4.09 -0.7 22 28 1007.8 0 9.5 15.5 18.3 47.2 34.3 115.5
24 17:10 33.5 12 4.39 0.2 20 28 1007.7 0 10.1 15.8 19.1 49.5 37.0 125.0
24 17:00 33 12 4.27 -0.2 24 35 1007.7 0 9.9 15.8 18.9 48.9 36.2 122.0
24 16:50 32.9 12 4.25 -0.2 26 32 1007.7 0 9.8 15.8 18.9 48.8 36.0 121.6
24 16:40 33.2 12 4.32 0 28 32 1007.7 0 10.0 15.8 19.0 49.1 36.5 123.3
24 16:30 33.5 12 4.39 0.2 28 37 1007.7 0 10.1 15.8 19.1 49.5 37.0 125.0
24 16:20 33.7 12 4.43 0.4 28 33 1007.9 0 10.2 15.8 19.2 49.6 37.3 126.0
24 16:10 33.1 13 4.65 1 33 39 1007.9 0 10.6 16.2 19.9 51.5 39.5 133.7
24 16:00 33.3 13 4.7 1.2 26 35 1008.1 0 10.7 16.2 20.0 51.8 39.8 135.0
24 15:50 33.5 13 4.75 1.3 26 32 1008.1 0 10.8 16.2 20.1 52.0 40.2 136.2
24 15:40 33.7 14 5.17 2.5 30 39 1008.2 0 11.7 16.7 21.1 54.9 43.8 149.0
24 15:30 34.1 14 5.28 2.8 22 46 1008.4 0 11.9 16.7 21.4 55.5 44.6 151.8
24 15:20 32.9 14 4.96 1.9 22 28 1008.5 0 11.3 16.6 20.8 53.9 42.3 143.8
24 15:10 33.6 14 5.15 2.4 17 19 1008.6 0 11.6 16.7 21.1 54.9 43.7 148.6
24 15:00 32.5 15 5.2 2.5 24 37 1008.6 0 11.8 16.9 21.5 56.0 44.7 152.1
24 14:50 32.5 15 5.2 2.5 20 22 1008.8 0 11.8 16.9 21.5 56.0 44.7 152.2
24 14:40 32.5 15 5.2 2.5 26 32 1009 0 11.8 16.9 21.5 56.0 44.7 152.2
24 14:30 32.7 16 5.61 3.6 24 35 1009.1 0 12.6 17.4 22.6 58.9 48.4 165.1
24 14:20 32.4 16 5.52 3.4 28 33 1009.3 0 12.4 17.3 22.5 58.4 47.7 162.7
24 14:10 32.1 18 6.11 4.8 19 24 1009.4 0 13.7 18.1 24.2 63.1 53.4 182.7
24 14:00 32 18 6.08 4.7 26 41 1009.5 0 13.6 18.0 24.2 63.0 53.2 182.0
24 13:50 32 19 6.42 5.5 30 35 1009.7 0 14.3 18.4 25.1 65.6 56.5 193.4
24 13:40 31.9 19 6.38 5.4 32 37 1009.8 0 14.2 18.4 25.1 65.4 56.1 192.3
24 13:30 31.7 18 5.98 4.5 26 41 1010.1 0 13.4 18.0 24.0 62.5 52.5 179.4
24 13:20 31.8 19 6.35 5.3 22 28 1010.2 0 14.2 18.4 25.0 65.3 55.9 191.6
24 13:10 32.8 19 6.69 6.2 20 26 1010.4 0 14.8 18.6 25.7 67.1 58.5 200.8
24 13:00 31.5 20 6.58 5.8 26 41 1010.6 0 14.6 18.8 25.8 67.3 58.4 200.1
24 12:50 31 20 6.4 5.4 19 22 1010.7 0 14.3 18.6 25.4 66.3 57.0 195.2
24 12:40 31.8 20 6.68 6.1 28 37 1010.9 0 14.8 18.8 26.0 67.9 59.2 202.9
24 12:30 31.2 21 6.79 6.3 24 35 1011 0 15.1 19.1 26.5 69.2 60.7 208.1
24 12:20 31.6 21 6.94 6.6 20 28 1011 0 15.4 19.2 26.8 70.1 61.8 212.3
24 12:10 30.4 24 7.44 7.6 20 24 1011.3 0 16.4 20.1 28.8 75.2 67.8 233.1
24 12:00 30.6 24 7.52 7.7 24 35 1011.4 0 16.6 20.1 28.9 75.7 68.4 235.4
24 11:50 29.9 25 7.54 7.7 24 30 1011.6 0 16.7 20.3 29.2 76.5 69.2 238.1
24 11:40 30.1 25 7.62 7.9 32 39 1011.5 0 16.8 20.4 29.4 77.0 69.9 240.4
24 11:30 30.6 25 7.83 8.3 24 35 1011.7 0 17.2 20.5 29.9 78.3 71.6 246.6
24 11:20 30.1 27 8.23 9.1 24 30 1011.7 0 18.1 21.1 31.3 82.1 76.2 262.6
24 11:10 29.7 27 8.06 8.7 24 30 1011.8 0 17.7 21.0 31.0 81.1 74.8 257.7
24 11:00 29.7 28 8.36 9.3 26 37 1012 0 18.4 21.4 31.9 83.7 78.0 268.8
24 10:50 29.7 28 8.36 9.3 22 30 1012 0 18.4 21.4 31.9 83.7 78.0 268.8
24 10:40 29 29 8.33 9.2 28 32 1012.1 0 18.3 21.5 32.1 84.1 78.3 270.0
24 10:30 28.3 31 8.57 9.6 28 37 1012.1 0 18.9 22.0 33.2 86.9 81.6 281.4
24 10:20 28 31 8.43 9.3 30 35 1012 0 18.6 21.9 32.8 86.0 80.4 277.0
24 10:10 28 31 8.43 9.3 28 33 1012.1 0 18.6 21.9 32.8 86.0 80.4 277.0
24 10:00 27.8 32 8.61 9.6 30 43 1011.9 0 19.0 22.2 33.5 87.8 82.5 284.5
24 09:50 27.7 33 8.83 10 24 28 1011.9 0 19.4 22.5 34.3 89.9 85.0 293.4
24 09:40 27.5 33 8.73 9.8 28 33 1011.9 0 19.2 22.4 34.0 89.2 84.1 290.2
24 09:30 26.8 34 8.65 9.6 28 44 1012 0 19.1 22.5 34.0 89.2 84.0 289.6
24 09:20 26.7 34 8.61 9.5 30 33 1012 0 19.0 22.4 33.9 89.0 83.7 288.4
24 09:10 26.4 35 8.71 9.7 28 30 1012 0 19.2 22.7 34.4 90.2 85.1 293.4
24 09:00 26.1 35 8.57 9.5 28 39 1012 0 19.0 22.5 34.0 89.3 83.8 288.9
24 08:50 25.8 36 8.67 9.6 28 33 1011.9 0 19.2 22.7 34.5 90.5 85.3 293.9
24 08:40 25.6 36 8.57 9.4 30 33 1011.8 0 19.0 22.7 34.2 89.8 84.3 290.7
24 08:30 25.5 37 8.76 9.7 32 44 1011.8 0 19.4 22.9 34.9 91.6 86.6 298.5
24 08:20 25.1 37 8.57 9.4 26 30 1011.7 0 19.0 22.8 34.4 90.3 84.9 292.4
24 08:10 24.7 38 8.6 9.4 39 44 1011.5 0 19.1 22.9 34.7 91.0 85.6 295.0
24 08:00 25.1 37 8.57 9.4 32 44 1011.4 0 19.0 22.8 34.4 90.3 84.8 292.3

Last Refresh: 25-Nov-2020 00:45:25

Most of the information presented on this site is sourced from the Bureau of Meteorology.  Copyright in all material sourced from the Bureau of Meteorology resides with the Commonwealth of Australia.